Terminal Aerodrome Forecast
Issued by NWS

Home | Current Version | Previous Version | Text Only | Print | Product List | Glossary Off
Versions: 1 2 3 4 5 6 7 8 9 10 11 12 13 14 15 16 17 18 19 20 21 22 23 24 25 26 27 28 29 30 31 32 33 34 35 36 37 38 39 40 41 42 43 44 45 46 47 48 49 50

138
FTUS43 KLOT 161729
TAFGYY
TAF
KGYY 161729Z 1618/1718 09006KT 1SM -SHRA BR OVC004
     FM170100 10012KT 1SM SHRA BR OVC003
      TEMPO 1703/1705 1/2SM TSRA FG OVC003CB
     FM170600 VRB03KT 1SM -RADZ BR OVC003
     FM171300 24010KT 2SM BR VCSH OVC005
     FM171600 25011KT P6SM VCSH OVC006=

USA.gov is the U.S. government's official web portal to all federal, state and local government web resources and services.